This is the latest recevied weather packets stored in our database for station/object WC4PEM-11. If no packets are shown the sender has not sent any weather packets the latest 10 day(s).
| Time | Temp. | Humidity | Pressure | Rain* | Wind** | Luminosity | Snow |
|---|---|---|---|---|---|---|---|
| 1777987985 | 24.44° C | 72% | 1016 hPa | 0 mm | - | - | - |
| 1777987920 | 24.44° C | 74% | 1016 hPa | 0 mm | - | - | - |
| 1777987685 | 24.44° C | 74% | 1016 hPa | 0 mm | - | - | - |
| 1777987584 | 23.89° C | 75% | 1016 hPa | 0 mm | - | - | - |
| 1777987385 | 23.89° C | 75% | 1016 hPa | 0 mm | - | - | - |
| 1777987085 | 23.89° C | 77% | 1016.1 hPa | 0 mm | - | - | - |
| 1777986785 | 23.33° C | 77% | 1016.1 hPa | 0 mm | - | - | - |
| 1777986485 | 23.33° C | 78% | 1016 hPa | 0 mm | - | - | - |
| 1777986185 | 22.78° C | 79% | 1016 hPa | 0 mm | - | - | - |
| 1777985885 | 22.78° C | 81% | 1016 hPa | 0 mm | - | - | - |
| 1777985674 | 22.22° C | 84% | 1016 hPa | 0 mm | - | - | - |
| 1777985585 | 22.22° C | 84% | 1016 hPa | 0 mm | - | - | - |
| 1777985285 | 21.67° C | 85% | 1015.9 hPa | 0 mm | - | - | - |
| 1777984985 | 21.11° C | 89% | 1016.1 hPa | 0 mm | - | - | - |
| 1777984685 | 20.56° C | 90% | 1016 hPa | 0 mm | - | - | - |
| 1777984385 | 20.56° C | 91% | 1016 hPa | 0 mm | - | - | - |
| 1777984202 | 19.44° C | 93% | 1016.3 hPa | 0 mm | - | - | - |
| 1777984085 | 20° C | 92% | 1016.2 hPa | 0 mm | - | - | - |
| 1777983785 | 19.44° C | 93% | 1016.3 hPa | 0 mm | - | - | - |
| 1777983485 | 19.44° C | 93% | 1016.3 hPa | 0 mm | - | - | - |
| 1777983185 | 18.89° C | 94% | 1016.3 hPa | 0 mm | - | - | - |
| 1777982885 | 18.89° C | 94% | 1016.2 hPa | 0 mm | - | - | - |
| 1777982585 | 18.89° C | 94% | 1016.2 hPa | 0 mm | - | - | - |
| 1777982423 | 18.33° C | 95% | 1015.6 hPa | 0 mm | - | - | - |
| 1777982285 | 18.33° C | 95% | 1015.9 hPa | 0 mm | - | - | - |
* Rain latest hour (hover to see other rain measurements)
** Current wind speed in m/s (hover to see current wind gust speed)